KMXO/MXO METAR and TAF weather

Enter ICAO airport designator
Station Type Date Time Source
KMXO METAR 2020/07/02 21:15 UTC NOAA

KMXO 022115Z AUTO 12005KT CLR 30/21 A3004 RMK AO2


Station Type Date Time Source
KMXO Decoded METAR 2020/07/02 21:15 UTC NOAA

Monticello Municipal, IA, United States (KMXO) 42-14N 091-10W
Jul 02, 2020 - 05:15 PM EDT / 2020.07.02 2115 UTC
Wind: from the ESE (120 degrees) at 6 MPH (5 KT):0
Sky conditions: clear
Temperature: 86 F (30 C)
Dew Point: 69 F (21 C)
Relative Humidity: 58%
Pressure (altimeter): 30.04 in. Hg (1017 hPa)
ob: KMXO 022115Z AUTO 12005KT CLR 30/21 A3004 RMK AO2
cycle: 21

Station Type Date Time Source
KMXO TAF UTC NOAA

Error!

Example: see airport list